Terminal Aerodrome Forecast
Issued by NWS

Home | Current Version | Previous Version | Graphics & Text | Print | Product List | Glossary On
Versions: 1 2 3 4 5 6 7 8 9 10 11 12 13 14 15 16 17 18 19 20 21 22 23 24 25 26 27 28
690
FTUS43 KLOT 171459 AAA
TAFDPA
TAF AMD
KDPA 171459Z 1715/1812 21012KT P6SM BKN011 OVC035
     FM171700 24018G26KT P6SM SCT025 BKN050
     FM180100 26013G20KT P6SM BKN050
     FM180600 28010KT P6SM SCT040=

USA.gov is the U.S. government's official web portal to all federal, state and local government web resources and services.